Pagrindinis puslapis
METAR-TAF:

METAR-TAF

Oro uostai :

Haugesiundas, Norvegija

platuma: 59-21N, ilguma: 005-13E, Aukštis: 2 m

Dabartinis oras

Ataskaita buvo paskelbta 42 minutes, ne 06:20 UTC
Vėjas 10 kt iš Pietryčių
Temperatūra 14°C
Drėgmė 72%
Slėgis 1000 hPa
Matomumas 10 km arba daugiau

METAR: ENHD 160620Z AUTO 13010KT 9999 BKN033/// OVC042/// 14/09 Q1000

Laikas: 09:02 (07:02 UTC)

Prognozė

Ataskaita buvo paskelbta 2 valandos ir 2 minutes, ne 05:00 UTC
Prognozė galioja nuo 16 metu 06 UTC su 16 metu 15 UTC
Vėjas 8 kt iš Rytų/Pietryčių
Matomumas 10 km arba daugiau
Mažai debesys ne aukštis 1500 ft
Su prošvaistėmis ne aukštis 4000 ft
Laikinai
nuo 16 metu 06 UTC su 16 metu 15 UTC
Su prošvaistėmis ne aukštis 2500 ft, aukštai iškilę kamuoliniai debesys.

TAF: ENHD 160500Z 1606/1615 12008KT 9999 FEW015 BKN040 TEMPO 1606/1615 BKN025TCU

Orai ataskaitas ir orų prognozės (METAR, TAF).

turimą stotys yra geltonos ir raudonos taškus žemėlapyje.

Perkelti pele per norėdami pamatyti stoties vardą.

Tada spustelėkite, norėdami matyti oro stebėjimo ir prognozės.

Norėdami pakeisti žemėlapį: spustelėkite ant žalios mygtukų su juodo kryžiaus žemyn,; žalią mygtuką su brūkšneliu, jei norite nutolinti; arba žalių rodyklių gretimoms žemėlapius.


METAR-TAF: